Time;durP1;ratioP1;P1;durP2;ratioP2;P2;SDS_P1;SDS_P2;PMS_P1;PMS_P2;Temp;Humidity;BMP_temperature;BMP_pressure;BME280_temperature;BME280_humidity;BME280_pressure;Samples;Min_cycle;Max_cycle;Signal;HPM_P1;HPM_P2
2023/12/23 00:01:18;;;;;;;14.88;4.03;;;9.40;99.90;;;;;;5138197;27;20046;-73
2023/12/23 00:03:44;;;;;;;10.77;3.97;;;9.30;99.90;;;;;;5116308;28;20016;-72
2023/12/23 00:06:10;;;;;;;13.65;3.60;;;9.40;99.90;;;;;;5132458;27;20027;-72
2023/12/23 00:08:36;;;;;;;12.30;5.35;;;9.30;99.90;;;;;;5137874;27;20027;-72
2023/12/23 00:11:01;;;;;;;13.80;4.47;;;9.30;99.90;;;;;;5138176;27;20148;-73
2023/12/23 00:13:27;;;;;;;18.73;4.32;;;9.20;99.90;;;;;;5138205;27;20028;-72
2023/12/23 00:15:53;;;;;;;20.52;4.55;;;9.20;99.90;;;;;;5119557;27;20019;-71
2023/12/23 00:18:19;;;;;;;15.02;5.68;;;9.10;99.90;;;;;;5116147;28;20015;-72
2023/12/23 00:20:44;;;;;;;15.70;4.97;;;9.10;99.90;;;;;;5108387;28;20114;-72
2023/12/23 00:23:12;;;;;;;13.95;4.50;;;9.10;99.90;;;;;;5136510;27;20030;-72
2023/12/23 00:25:37;;;;;;;16.80;4.32;;;9.10;99.90;;;;;;5119173;27;20031;-72
2023/12/23 00:28:04;;;;;;;9.77;3.97;;;9.20;99.90;;;;;;5137886;27;20083;-73
2023/12/23 00:30:29;;;;;;;9.88;4.03;;;9.20;99.90;;;;;;5137746;27;20099;-72
2023/12/23 00:32:55;;;;;;;14.82;4.32;;;9.10;99.90;;;;;;5119121;27;20019;-73
2023/12/23 00:35:21;;;;;;;16.08;4.53;;;9.10;99.90;;;;;;5137563;27;20039;-73
2023/12/23 00:37:46;;;;;;;11.95;4.22;;;9.10;99.90;;;;;;5115540;28;20103;-72
2023/12/23 00:40:12;;;;;;;13.88;4.38;;;9.10;99.90;;;;;;5134416;27;20027;-72
2023/12/23 00:42:38;;;;;;;11.55;4.05;;;9.00;99.90;;;;;;5136384;27;20027;-72
2023/12/23 00:45:04;;;;;;;13.15;4.45;;;8.90;99.90;;;;;;5136876;27;20061;-73
2023/12/23 00:47:30;;;;;;;19.13;4.60;;;9.00;99.90;;;;;;5137474;27;20023;-73
2023/12/23 00:49:56;;;;;;;19.17;5.57;;;8.90;99.90;;;;;;5136522;27;20038;-73
2023/12/23 00:52:22;;;;;;;15.00;4.28;;;8.90;99.90;;;;;;5136587;27;20019;-72
2023/12/23 00:54:48;;;;;;;10.57;3.95;;;8.90;99.90;;;;;;5136931;27;20067;-72
2023/12/23 00:57:13;;;;;;;10.35;4.75;;;8.90;99.90;;;;;;5137121;27;20018;-73
2023/12/23 00:59:39;;;;;;;27.38;7.57;;;8.90;99.90;;;;;;5136901;27;20507;-73
2023/12/23 01:02:05;;;;;;;13.57;4.18;;;8.90;99.90;;;;;;5115276;28;20028;-72
2023/12/23 01:04:30;;;;;;;8.60;4.05;;;9.00;99.90;;;;;;5131721;27;20038;-72
2023/12/23 01:06:56;;;;;;;17.33;5.45;;;8.90;99.90;;;;;;5115016;28;20024;-72
2023/12/23 01:09:21;;;;;;;7.90;3.78;;;9.00;99.90;;;;;;5131652;27;20116;-72
2023/12/23 01:11:47;;;;;;;16.88;4.32;;;9.00;99.90;;;;;;5136903;27;20019;-72
2023/12/23 01:14:13;;;;;;;15.38;4.50;;;9.00;99.90;;;;;;5115556;28;20066;-72
2023/12/23 01:16:38;;;;;;;12.30;3.95;;;9.00;99.90;;;;;;5117233;27;20015;-72
2023/12/23 01:19:04;;;;;;;18.17;3.63;;;9.00;99.90;;;;;;5131696;27;20094;-73
2023/12/23 01:21:29;;;;;;;19.23;4.35;;;9.00;99.90;;;;;;5135510;27;20019;-72
2023/12/23 01:23:55;;;;;;;16.23;3.72;;;9.00;99.90;;;;;;5136876;27;20058;-72
2023/12/23 01:26:21;;;;;;;13.32;4.00;;;9.00;99.90;;;;;;5136906;27;20442;-73
2023/12/23 01:28:47;;;;;;;10.88;4.32;;;9.00;99.90;;;;;;5115244;28;20023;-72
2023/12/23 01:31:13;;;;;;;15.90;4.03;;;9.00;99.90;;;;;;5135137;27;20097;-72
2023/12/23 01:33:38;;;;;;;19.23;4.47;;;9.00;99.90;;;;;;5118412;28;20110;-72
2023/12/23 01:36:05;;;;;;;12.43;5.40;;;9.00;99.90;;;;;;5114726;28;20110;-73
2023/12/23 01:38:33;;;;;;;16.48;4.90;;;9.00;99.90;;;;;;5110115;28;20019;-72
2023/12/23 01:40:59;;;;;;;11.63;3.92;;;9.00;99.90;;;;;;5136602;28;20019;-72
2023/12/23 01:43:24;;;;;;;12.27;4.60;;;9.00;99.90;;;;;;5136653;28;20102;-72
2023/12/23 01:45:59;;;;;;;12.10;4.03;;;9.00;99.90;;;;;;5136247;28;20076;-71
2023/12/23 01:48:26;;;;;;;17.27;5.70;;;9.00;99.90;;;;;;5136579;28;20064;-73
2023/12/23 01:50:53;;;;;;;11.05;4.03;;;9.00;99.90;;;;;;5131629;28;20099;-72
2023/12/23 01:53:20;;;;;;;16.95;4.15;;;9.00;99.90;;;;;;5129446;28;20027;-72
2023/12/23 01:55:46;;;;;;;15.43;3.97;;;9.00;99.90;;;;;;5136559;28;20023;-72
2023/12/23 01:58:12;;;;;;;14.25;4.88;;;9.00;99.90;;;;;;5136202;28;20034;-72
2023/12/23 02:00:37;;;;;;;11.57;4.00;;;9.00;99.90;;;;;;5136282;28;20023;-72
2023/12/23 02:03:03;;;;;;;8.15;3.47;;;9.00;99.90;;;;;;5136117;28;20028;-71
2023/12/23 02:05:30;;;;;;;13.57;5.57;;;9.10;99.90;;;;;;5136374;28;20047;-73
2023/12/23 02:07:56;;;;;;;13.93;4.82;;;9.00;99.90;;;;;;5135799;28;20026;-72
2023/12/23 02:10:22;;;;;;;15.10;4.40;;;9.00;99.90;;;;;;5136336;28;20015;-73
2023/12/23 02:13:13;;;;;;;9.68;3.20;;;9.00;99.90;;;;;;5138804;27;20019;-71
2023/12/23 02:15:43;;;;;;;8.82;3.50;;;9.00;99.90;;;;;;5140239;27;20480;-72
2023/12/23 02:18:10;;;;;;;16.40;4.60;;;9.00;99.90;;;;;;5139908;27;20542;-72
2023/12/23 02:20:35;;;;;;;13.23;4.05;;;8.90;99.90;;;;;;5133451;27;20043;-73
2023/12/23 02:23:01;;;;;;;11.30;3.92;;;9.00;99.90;;;;;;5139606;27;20031;-73
2023/12/23 02:25:27;;;;;;;15.48;3.95;;;8.90;99.90;;;;;;5139992;27;20440;-72
2023/12/23 02:28:03;;;;;;;13.68;3.80;;;9.00;99.90;;;;;;5139849;27;20015;-73
2023/12/23 02:30:30;;;;;;;11.57;5.43;;;9.00;99.90;;;;;;5139734;27;20031;-73
2023/12/23 02:32:57;;;;;;;14.57;5.53;;;9.00;99.90;;;;;;5121383;27;20015;-72
2023/12/23 02:35:24;;;;;;;8.52;3.70;;;9.10;99.90;;;;;;5139875;27;20027;-73
2023/12/23 02:37:50;;;;;;;10.20;3.78;;;9.00;99.90;;;;;;5117271;28;20047;-73
2023/12/23 02:40:16;;;;;;;18.50;4.22;;;9.00;99.90;;;;;;5114321;27;20487;-73
2023/12/23 02:42:41;;;;;;;19.00;4.47;;;9.10;99.90;;;;;;5139483;27;20106;-72
2023/12/23 02:45:08;;;;;;;10.73;4.35;;;9.00;99.90;;;;;;5139593;27;20038;-73
2023/12/23 02:47:33;;;;;;;15.70;5.22;;;9.00;99.90;;;;;;5139355;27;20064;-73
2023/12/23 02:49:59;;;;;;;14.07;4.03;;;9.00;99.90;;;;;;5139472;27;20027;-73
2023/12/23 02:52:24;;;;;;;10.15;4.25;;;8.90;99.90;;;;;;5139313;27;20407;-73
2023/12/23 02:54:50;;;;;;;11.05;4.68;;;9.00;99.90;;;;;;5139308;27;20055;-73
2023/12/23 02:57:16;;;;;;;14.48;4.35;;;9.00;99.90;;;;;;5137312;27;20034;-73
2023/12/23 02:59:41;;;;;;;15.45;4.55;;;9.00;99.90;;;;;;5139346;27;20019;-73
2023/12/23 03:02:07;;;;;;;14.63;3.92;;;9.00;99.90;;;;;;5117119;28;20028;-72
2023/12/23 03:04:33;;;;;;;14.88;4.35;;;9.00;99.90;;;;;;5132356;27;20027;-72
2023/12/23 03:06:59;;;;;;;11.63;4.35;;;9.00;99.90;;;;;;5138712;27;20103;-73
2023/12/23 03:09:25;;;;;;;16.42;3.97;;;9.00;99.90;;;;;;5139129;27;20055;-73
2023/12/23 03:11:51;;;;;;;15.48;4.50;;;9.00;99.90;;;;;;5138934;27;20525;-72
2023/12/23 03:14:16;;;;;;;11.10;4.45;;;9.00;99.90;;;;;;5139133;27;20019;-73
2023/12/23 03:16:42;;;;;;;17.70;4.63;;;9.00;99.90;;;;;;5138790;27;20098;-73
2023/12/23 03:19:09;;;;;;;11.20;4.53;;;9.00;99.90;;;;;;5133071;27;20019;-73
2023/12/23 03:21:34;;;;;;;13.25;3.80;;;9.00;99.90;;;;;;5138126;27;20044;-73
2023/12/23 03:24:00;;;;;;;12.75;4.90;;;9.00;99.90;;;;;;5137390;27;20023;-73
2023/12/23 03:26:26;;;;;;;17.23;3.88;;;9.00;99.90;;;;;;5116997;28;20072;-72
2023/12/23 03:28:52;;;;;;;17.63;4.32;;;9.00;99.90;;;;;;5131782;27;20033;-72
2023/12/23 03:31:18;;;;;;;12.68;3.78;;;9.00;99.90;;;;;;5116592;28;20019;-72
2023/12/23 03:33:44;;;;;;;18.05;4.00;;;9.00;99.90;;;;;;5131605;27;20019;-72
2023/12/23 03:36:09;;;;;;;10.00;3.88;;;9.00;99.90;;;;;;5138506;27;21329;-72
2023/12/23 03:38:35;;;;;;;10.07;3.70;;;9.00;99.90;;;;;;5138379;27;20033;-72
2023/12/23 03:41:01;;;;;;;12.73;4.07;;;9.10;99.90;;;;;;5130998;27;20054;-73
2023/12/23 03:43:26;;;;;;;9.50;3.92;;;9.10;99.90;;;;;;5137397;27;20042;-72
2023/12/23 03:45:52;;;;;;;16.08;4.43;;;9.10;99.90;;;;;;5137521;27;20048;-71
2023/12/23 03:48:18;;;;;;;17.63;4.40;;;9.00;99.90;;;;;;5137492;27;20075;-72
2023/12/23 03:50:43;;;;;;;17.80;3.92;;;9.00;99.90;;;;;;5138142;27;20030;-73
2023/12/23 03:53:09;;;;;;;11.75;4.35;;;9.00;99.90;;;;;;5119464;27;20031;-73
2023/12/23 03:55:35;;;;;;;12.13;3.30;;;9.00;99.90;;;;;;5138027;27;20388;-73
2023/12/23 03:58:02;;;;;;;11.80;3.72;;;9.00;99.90;;;;;;5119779;27;20114;-72
2023/12/23 04:00:28;;;;;;;9.25;3.47;;;9.00;99.90;;;;;;5136839;27;20098;-72
2023/12/23 04:02:54;;;;;;;12.70;4.05;;;9.00;99.90;;;;;;5119540;27;20534;-73
2023/12/23 04:05:20;;;;;;;16.10;4.35;;;9.00;99.90;;;;;;5118546;27;20493;-72
2023/12/23 04:07:50;;;;;;;14.40;4.13;;;9.00;99.90;;;;;;5118568;27;20600;-73
2023/12/23 04:10:16;;;;;;;16.70;3.75;;;9.00;99.90;;;;;;5137843;27;20031;-72
2023/12/23 04:12:42;;;;;;;13.93;4.10;;;9.00;99.90;;;;;;5137668;27;20035;-72
2023/12/23 04:15:08;;;;;;;15.05;4.07;;;9.00;99.90;;;;;;5137599;27;20068;-72
2023/12/23 04:17:34;;;;;;;15.35;4.65;;;9.00;99.90;;;;;;5137790;27;20034;-73
2023/12/23 04:20:00;;;;;;;10.52;4.30;;;8.90;99.90;;;;;;5130657;27;20023;-73
2023/12/23 04:22:26;;;;;;;11.88;3.78;;;8.90;99.90;;;;;;5137401;27;20023;-73
2023/12/23 04:24:52;;;;;;;8.73;3.50;;;8.80;99.90;;;;;;5137450;27;20023;-73
2023/12/23 04:27:17;;;;;;;15.18;4.85;;;8.80;99.90;;;;;;5137543;27;20027;-73
2023/12/23 04:29:43;;;;;;;13.15;3.90;;;8.80;99.90;;;;;;5115301;28;20024;-73
2023/12/23 04:32:10;;;;;;;17.35;3.60;;;8.80;99.90;;;;;;5132809;27;20068;-72
2023/12/23 04:34:37;;;;;;;9.52;3.63;;;8.80;99.90;;;;;;5115072;28;20020;-73
2023/12/23 04:37:03;;;;;;;15.90;4.65;;;8.80;99.90;;;;;;5129889;27;20115;-73
2023/12/23 04:39:29;;;;;;;10.00;3.42;;;8.80;99.90;;;;;;5137488;27;20019;-72
2023/12/23 04:41:55;;;;;;;13.15;4.35;;;8.90;99.90;;;;;;5137439;27;20030;-72
2023/12/23 04:44:21;;;;;;;8.32;3.60;;;8.90;99.90;;;;;;5115308;28;20019;-71
2023/12/23 04:46:48;;;;;;;18.42;3.97;;;8.90;99.90;;;;;;5129948;27;20546;-72
2023/12/23 04:49:14;;;;;;;16.40;4.30;;;8.90;99.90;;;;;;5137082;27;20078;-72
2023/12/23 04:51:43;;;;;;;22.73;11.77;;;8.90;99.90;;;;;;5136685;27;20028;-73
2023/12/23 04:54:09;;;;;;;22.92;9.10;;;8.90;99.90;;;;;;5136945;27;20043;-73
2023/12/23 04:56:35;;;;;;;14.57;5.43;;;8.90;99.90;;;;;;5136989;27;20027;-73
2023/12/23 04:59:01;;;;;;;16.45;5.15;;;8.90;99.90;;;;;;5137136;27;20030;-73
2023/12/23 05:01:26;;;;;;;15.18;4.28;;;8.90;99.90;;;;;;5136882;27;20026;-72
2023/12/23 05:03:52;;;;;;;10.00;3.47;;;8.90;99.90;;;;;;5118447;27;20796;-72
2023/12/23 05:06:18;;;;;;;13.07;4.72;;;8.90;99.90;;;;;;5115378;27;20384;-72
2023/12/23 05:08:44;;;;;;;15.95;4.38;;;8.90;99.90;;;;;;5136651;27;20630;-72
2023/12/23 05:11:09;;;;;;;12.38;3.90;;;8.90;99.90;;;;;;5115141;27;20092;-72
2023/12/23 05:13:35;;;;;;;13.15;3.95;;;8.90;99.90;;;;;;5136436;27;20102;-72
2023/12/23 05:16:00;;;;;;;10.15;3.50;;;8.90;99.90;;;;;;5136675;27;20027;-72
2023/12/23 05:18:26;;;;;;;10.82;3.35;;;8.90;99.90;;;;;;5136648;27;20068;-72
2023/12/23 05:20:52;;;;;;;16.17;3.67;;;8.90;99.90;;;;;;5130464;27;20102;-72
2023/12/23 05:23:17;;;;;;;7.85;3.45;;;8.90;99.90;;;;;;5136599;27;20050;-73
2023/12/23 05:25:43;;;;;;;10.13;3.13;;;8.90;99.90;;;;;;5136554;27;20042;-74
2023/12/23 05:28:09;;;;;;;14.50;3.83;;;8.90;99.90;;;;;;5136681;27;20534;-73
2023/12/23 05:30:35;;;;;;;11.70;3.35;;;8.90;99.90;;;;;;5136474;27;20063;-73
2023/12/23 05:33:01;;;;;;;6.65;3.92;;;8.90;99.90;;;;;;5136301;27;20054;-72
2023/12/23 05:35:26;;;;;;;11.40;4.82;;;9.00;99.90;;;;;;5136521;27;20027;-72
2023/12/23 05:37:52;;;;;;;7.28;3.15;;;8.90;99.90;;;;;;5117275;28;20099;-72
2023/12/23 05:40:18;;;;;;;11.30;3.70;;;8.90;99.90;;;;;;5136576;28;20068;-73
2023/12/23 05:42:43;;;;;;;5.57;2.88;;;9.00;99.90;;;;;;5135554;28;20019;-73
2023/12/23 05:45:09;;;;;;;4.32;2.92;;;9.00;99.90;;;;;;5136413;28;20028;-73
2023/12/23 05:47:35;;;;;;;16.17;3.35;;;9.00;99.90;;;;;;5138745;27;20027;-73
2023/12/23 05:50:00;;;;;;;11.98;4.47;;;9.00;99.90;;;;;;5140608;27;20103;-73
2023/12/23 05:52:26;;;;;;;8.05;3.30;;;9.10;99.90;;;;;;5121468;27;20102;-73
2023/12/23 05:54:52;;;;;;;14.65;6.00;;;9.00;99.90;;;;;;5118634;28;20074;-72
2023/12/23 05:57:17;;;;;;;12.07;3.25;;;9.10;99.90;;;;;;5140081;27;20099;-72
2023/12/23 05:59:43;;;;;;;10.00;2.97;;;9.00;99.90;;;;;;5140499;27;20111;-72
2023/12/23 06:02:08;;;;;;;8.50;3.50;;;9.00;99.90;;;;;;5140313;27;20085;-73
2023/12/23 06:04:34;;;;;;;11.77;4.03;;;8.90;99.90;;;;;;5118610;28;20028;-72
2023/12/23 06:07:00;;;;;;;10.85;2.97;;;8.90;99.90;;;;;;5121159;27;20491;-73
2023/12/23 06:09:26;;;;;;;16.45;4.88;;;8.90;99.90;;;;;;5118655;28;20036;-73
2023/12/23 06:11:51;;;;;;;8.98;3.05;;;8.90;99.90;;;;;;5139813;27;20031;-73
2023/12/23 06:14:17;;;;;;;8.88;3.58;;;8.90;99.90;;;;;;5140340;27;20027;-73
2023/12/23 06:16:43;;;;;;;13.52;3.75;;;8.80;99.90;;;;;;5140087;27;20019;-73
2023/12/23 06:19:08;;;;;;;9.80;3.10;;;8.80;99.90;;;;;;5134133;27;20485;-73
2023/12/23 06:21:34;;;;;;;10.95;3.25;;;8.70;99.90;;;;;;5139029;27;20486;-72
2023/12/23 06:24:00;;;;;;;3.45;2.60;;;8.70;99.90;;;;;;5140147;27;20415;-73
2023/12/23 06:26:26;;;;;;;6.90;3.05;;;8.70;99.90;;;;;;5139881;27;20015;-72
2023/12/23 06:28:51;;;;;;;8.32;3.20;;;8.70;99.90;;;;;;5139988;27;20057;-71
2023/12/23 06:31:17;;;;;;;8.13;2.67;;;8.70;99.90;;;;;;5117662;28;20018;-71
2023/12/23 06:33:43;;;;;;;10.05;3.63;;;8.80;99.90;;;;;;5132142;27;20086;-72
2023/12/23 06:36:09;;;;;;;13.15;3.40;;;8.80;99.90;;;;;;5117846;28;20012;-72
2023/12/23 06:38:35;;;;;;;4.80;3.45;;;8.80;99.90;;;;;;5110090;28;20563;-73
2023/12/23 06:41:02;;;;;;;7.70;3.40;;;8.90;99.90;;;;;;5117141;28;20148;-73
2023/12/23 06:43:29;;;;;;;9.32;3.58;;;8.90;99.90;;;;;;5113926;27;20051;-73
2023/12/23 06:45:54;;;;;;;16.20;3.53;;;8.90;99.90;;;;;;5139467;27;20015;-73
2023/12/23 06:48:20;;;;;;;8.30;3.30;;;8.90;99.90;;;;;;5139764;27;20111;-73
2023/12/23 06:50:46;;;;;;;9.32;2.85;;;8.90;99.90;;;;;;5139385;27;20410;-72
2023/12/23 06:53:12;;;;;;;10.25;2.90;;;8.90;99.90;;;;;;5116981;28;20753;-74
2023/12/23 06:55:37;;;;;;;5.30;3.20;;;8.90;99.90;;;;;;5139349;27;20098;-73
2023/12/23 06:58:03;;;;;;;6.53;2.67;;;8.90;99.90;;;;;;5139428;27;20047;-72
2023/12/23 07:00:29;;;;;;;7.43;3.22;;;8.90;99.90;;;;;;5129371;27;20030;-73
2023/12/23 07:02:54;;;;;;;8.23;3.63;;;8.90;99.90;;;;;;5130581;27;20509;-73
2023/12/23 07:05:20;;;;;;;9.52;3.55;;;8.90;99.90;;;;;;5138693;27;20028;-71
2023/12/23 07:07:46;;;;;;;11.75;3.33;;;8.90;99.90;;;;;;5137632;27;20108;-72
2023/12/23 07:10:13;;;;;;;8.60;3.47;;;8.90;99.90;;;;;;5138967;27;20026;-72
2023/12/23 07:12:40;;;;;;;13.27;4.68;;;8.90;99.90;;;;;;5138952;27;20459;-73
2023/12/23 07:15:06;;;;;;;4.82;3.25;;;8.90;99.90;;;;;;5117073;28;20019;-73
2023/12/23 07:17:32;;;;;;;7.60;3.55;;;8.90;99.90;;;;;;5109660;28;20518;-72
2023/12/23 07:19:58;;;;;;;9.35;3.30;;;8.90;99.90;;;;;;5109846;28;20531;-73
2023/12/23 07:22:24;;;;;;;8.32;3.45;;;8.80;99.90;;;;;;5130955;27;20134;-72
2023/12/23 07:24:50;;;;;;;19.27;3.72;;;8.80;99.90;;;;;;5116676;28;20087;-73
2023/12/23 07:27:15;;;;;;;7.68;3.40;;;8.90;99.90;;;;;;5131302;27;20111;-73
2023/12/23 07:29:41;;;;;;;12.65;4.05;;;8.90;99.90;;;;;;5138809;27;20023;-72
2023/12/23 07:32:07;;;;;;;4.97;3.08;;;8.80;99.90;;;;;;5120570;27;20031;-73
2023/12/23 07:34:33;;;;;;;10.10;3.40;;;8.80;99.90;;;;;;5138471;27;20019;-73
2023/12/23 07:36:59;;;;;;;10.70;3.50;;;8.90;99.90;;;;;;5138306;27;20107;-72
2023/12/23 07:39:24;;;;;;;11.45;3.55;;;8.90;99.90;;;;;;5116641;28;20019;-73
2023/12/23 07:41:50;;;;;;;16.95;3.83;;;8.80;99.90;;;;;;5131155;27;20027;-73
2023/12/23 07:44:16;;;;;;;13.65;4.22;;;8.90;99.90;;;;;;5116474;28;20020;-72
2023/12/23 07:46:42;;;;;;;7.22;3.38;;;8.90;99.90;;;;;;5130651;27;20110;-73
2023/12/23 07:49:07;;;;;;;8.63;3.72;;;8.90;99.90;;;;;;5116314;28;20028;-72
2023/12/23 07:51:35;;;;;;;6.28;3.45;;;8.90;99.90;;;;;;5130453;27;20030;-71
2023/12/23 07:54:00;;;;;;;10.05;3.67;;;8.90;99.90;;;;;;5119338;27;20035;-73
2023/12/23 07:56:27;;;;;;;10.43;3.78;;;8.90;99.90;;;;;;5116406;28;20030;-72
2023/12/23 07:58:53;;;;;;;9.90;3.35;;;8.90;99.90;;;;;;5137955;27;20113;-73
2023/12/23 08:01:18;;;;;;;9.10;4.18;;;8.90;99.90;;;;;;5116317;28;20043;-73
2023/12/23 08:03:44;;;;;;;9.45;5.05;;;8.90;99.90;;;;;;5119216;27;20024;-72
2023/12/23 08:06:10;;;;;;;9.75;4.18;;;8.90;99.90;;;;;;5138137;27;20035;-73
2023/12/23 08:08:35;;;;;;;17.95;4.60;;;9.00;99.90;;;;;;5137463;27;20034;-72
2023/12/23 08:11:01;;;;;;;14.23;7.55;;;9.00;99.90;;;;;;5115271;28;20055;-74
2023/12/23 08:13:30;;;;;;;11.93;4.60;;;9.00;99.90;;;;;;5136930;27;20094;-74
2023/12/23 08:15:55;;;;;;;8.18;4.00;;;9.00;99.90;;;;;;5118637;27;20465;-73
2023/12/23 08:18:21;;;;;;;7.43;4.07;;;9.00;99.90;;;;;;5103007;27;20109;-75
2023/12/23 08:20:47;;;;;;;5.10;3.20;;;9.00;99.90;;;;;;5125911;27;20028;-74
2023/12/23 08:23:12;;;;;;;5.20;3.40;;;9.10;99.90;;;;;;5120513;27;20023;-75
2023/12/23 08:25:38;;;;;;;9.00;4.15;;;9.10;99.90;;;;;;5113818;27;20028;-74
2023/12/23 08:28:05;;;;;;;14.60;4.10;;;9.10;99.90;;;;;;5115235;27;20976;-74
2023/12/23 08:30:30;;;;;;;8.80;3.92;;;9.20;99.90;;;;;;5116320;27;20039;-74
2023/12/23 08:32:56;;;;;;;5.95;3.40;;;9.10;99.90;;;;;;5122618;27;20020;-75
2023/12/23 08:35:22;;;;;;;5.85;3.50;;;9.20;99.90;;;;;;5117047;27;20141;-74
2023/12/23 08:37:47;;;;;;;11.95;3.75;;;9.20;99.90;;;;;;5111224;27;20402;-73
2023/12/23 08:40:13;;;;;;;9.35;4.40;;;9.30;99.90;;;;;;5116566;27;20030;-73
2023/12/23 08:42:39;;;;;;;7.22;3.97;;;9.30;99.90;;;;;;5111201;27;20043;-73
2023/12/23 08:45:05;;;;;;;10.10;3.95;;;9.50;99.90;;;;;;5118966;27;20023;-73
2023/12/23 08:47:31;;;;;;;8.38;5.10;;;9.60;99.90;;;;;;5122045;27;20035;-73
2023/12/23 08:49:56;;;;;;;13.52;5.25;;;9.70;99.90;;;;;;5125561;27;20031;-73
2023/12/23 08:52:22;;;;;;;8.55;4.40;;;9.70;99.90;;;;;;5132011;27;20041;-72
2023/12/23 08:54:47;;;;;;;7.38;3.70;;;9.70;99.90;;;;;;5130762;27;20039;-74
2023/12/23 08:57:13;;;;;;;5.70;3.67;;;9.70;99.90;;;;;;5128425;27;20027;-74
2023/12/23 08:59:39;;;;;;;7.43;3.80;;;9.60;99.90;;;;;;5109767;27;20015;-74
2023/12/23 09:02:05;;;;;;;6.22;3.42;;;9.60;99.90;;;;;;5130438;27;20027;-74
2023/12/23 09:04:30;;;;;;;7.07;4.07;;;9.60;99.90;;;;;;5131245;27;20076;-72
2023/12/23 09:06:57;;;;;;;7.68;3.42;;;9.60;99.90;;;;;;5110055;27;20027;-75
2023/12/23 09:09:24;;;;;;;6.35;2.85;;;9.60;99.90;;;;;;5109428;27;20445;-74
2023/12/23 09:11:50;;;;;;;6.82;3.45;;;9.60;99.90;;;;;;5128822;27;20030;-73
2023/12/23 09:14:16;;;;;;;13.77;3.20;;;9.70;99.90;;;;;;5124861;27;20012;-73
2023/12/23 09:16:41;;;;;;;6.78;3.00;;;9.70;99.90;;;;;;5110175;28;20039;-73
2023/12/23 09:19:07;;;;;;;9.85;3.92;;;9.70;99.90;;;;;;5122454;27;20028;-73
2023/12/23 09:21:33;;;;;;;5.45;2.78;;;9.70;99.90;;;;;;5119129;27;20590;-73
2023/12/23 09:23:59;;;;;;;8.90;3.30;;;9.80;99.90;;;;;;5131410;27;20027;-74
2023/12/23 09:26:25;;;;;;;8.50;3.95;;;9.70;99.90;;;;;;5130131;27;20390;-73
2023/12/23 09:28:51;;;;;;;6.13;2.65;;;9.70;99.90;;;;;;5130746;27;20026;-73
2023/12/23 09:31:17;;;;;;;7.55;3.75;;;9.70;99.90;;;;;;5096745;28;20020;-73
2023/12/23 09:33:43;;;;;;;9.02;3.05;;;9.70;99.90;;;;;;5123616;27;20879;-74
2023/12/23 09:36:08;;;;;;;5.88;3.50;;;9.70;99.90;;;;;;5109419;28;20541;-73
2023/12/23 09:38:34;;;;;;;4.22;2.88;;;9.70;99.90;;;;;;5118260;28;20433;-74
2023/12/23 09:41:00;;;;;;;4.28;3.30;;;9.70;99.90;;;;;;5133081;28;20019;-73
2023/12/23 09:43:26;;;;;;;6.32;2.90;;;9.80;99.90;;;;;;5133876;28;20019;-73
2023/12/23 09:45:52;;;;;;;15.73;7.00;;;9.80;99.90;;;;;;5101732;28;20153;-74
2023/12/23 09:48:18;;;;;;;8.23;2.95;;;9.80;99.90;;;;;;5118083;28;20038;-73
2023/12/23 09:50:45;;;;;;;3.72;2.70;;;9.80;99.90;;;;;;5135495;28;20031;-73
2023/12/23 09:53:13;;;;;;;3.75;2.95;;;9.80;99.90;;;;;;5135799;28;20034;-75
2023/12/23 09:55:40;;;;;;;5.57;3.20;;;10.00;99.90;;;;;;5131157;28;20027;-74
2023/12/23 09:58:05;;;;;;;4.20;2.92;;;10.00;99.90;;;;;;5136280;28;20539;-73
2023/12/23 10:00:32;;;;;;;23.70;10.35;;;10.00;99.90;;;;;;5136289;28;20101;-73
2023/12/23 10:02:58;;;;;;;5.28;3.00;;;10.00;99.90;;;;;;5136055;28;20024;-73
2023/12/23 10:05:27;;;;;;;4.03;3.63;;;10.00;99.90;;;;;;5127845;28;20034;-74
2023/12/23 10:07:59;;;;;;;11.20;3.60;;;10.10;99.90;;;;;;5135680;28;20023;-73
2023/12/23 10:10:30;;;;;;;7.45;4.22;;;10.10;99.90;;;;;;5135986;28;20019;-74
2023/12/23 10:12:56;;;;;;;9.32;3.95;;;10.10;99.90;;;;;;5135967;28;20079;-74
2023/12/23 10:15:21;;;;;;;3.45;2.90;;;10.20;99.90;;;;;;5123041;28;20514;-74
2023/12/23 10:17:47;;;;;;;6.57;3.22;;;10.40;99.90;;;;;;5128575;28;20031;-74
2023/12/23 10:20:13;;;;;;;3.75;2.70;;;10.60;99.90;;;;;;5133215;28;20083;-74
2023/12/23 10:22:45;;;;;;;4.43;2.45;;;10.70;99.90;;;;;;5132957;28;20027;-73
2023/12/23 10:25:12;;;;;;;4.22;2.53;;;10.80;99.90;;;;;;5133425;28;20049;-74
2023/12/23 10:27:43;;;;;;;13.57;6.60;;;10.90;99.90;;;;;;5134894;28;20038;-75
2023/12/23 10:30:10;;;;;;;6.82;2.47;;;11.00;99.90;;;;;;5134753;28;20027;-76
2023/12/23 10:32:37;;;;;;;3.33;2.47;;;11.00;99.90;;;;;;5135434;27;20401;-74
2023/12/23 10:35:06;;;;;;;2.67;2.20;;;11.00;99.90;;;;;;5119527;27;20026;-75
2023/12/23 10:37:33;;;;;;;2.33;2.00;;;11.00;99.90;;;;;;5135698;27;20088;-73
2023/12/23 10:40:13;;;;;;;3.10;1.95;;;10.90;99.90;;;;;;5138334;27;20494;-76
2023/12/23 10:42:43;;;;;;;3.38;2.25;;;10.70;99.90;;;;;;5134016;27;20081;-75
2023/12/23 10:45:10;;;;;;;4.93;2.25;;;10.60;99.90;;;;;;5134245;27;20052;-74
2023/12/23 10:47:37;;;;;;;5.70;2.67;;;10.60;99.90;;;;;;5137327;27;20027;-74
2023/12/23 10:50:04;;;;;;;4.47;2.30;;;10.70;99.90;;;;;;5137578;27;20049;-74
2023/12/23 10:52:30;;;;;;;5.22;2.55;;;10.90;99.90;;;;;;5133632;27;20027;-74
2023/12/23 10:54:56;;;;;;;4.25;2.38;;;11.10;99.90;;;;;;5118324;27;20039;-76
2023/12/23 10:57:22;;;;;;;4.72;1.80;;;11.30;99.90;;;;;;5137678;27;20486;-73
2023/12/23 10:59:48;;;;;;;3.05;2.00;;;11.30;99.90;;;;;;5137903;27;20046;-74
2023/12/23 11:02:18;;;;;;;2.08;1.88;;;11.30;99.90;;;;;;5137707;27;20035;-74
2023/12/23 11:04:48;;;;;;;2.00;1.80;;;11.10;99.90;;;;;;5117010;27;20576;-75
2023/12/23 11:07:16;;;;;;;2.15;1.90;;;10.90;99.90;;;;;;5137660;27;20030;-75
2023/12/23 11:09:45;;;;;;;2.35;1.85;;;10.80;99.90;;;;;;5137787;27;20028;-76
2023/12/23 11:12:11;;;;;;;2.80;2.50;;;10.70;99.90;;;;;;5137845;27;20551;-75
2023/12/23 11:14:37;;;;;;;3.22;2.50;;;10.70;99.90;;;;;;5133519;27;20024;-75
2023/12/23 11:17:27;;;;;;;5.18;2.15;;;10.60;99.90;;;;;;5137225;27;20064;-75
2023/12/23 11:19:57;;;;;;;2.40;2.20;;;10.70;99.90;;;;;;5132665;27;20034;-74
2023/12/23 11:22:36;;;;;;;4.65;2.72;;;10.70;99.90;;;;;;5134069;27;20027;-75
2023/12/23 11:25:02;;;;;;;4.68;2.80;;;10.70;99.90;;;;;;5133728;27;20106;-75
2023/12/23 11:27:35;;;;;;;2.92;2.30;;;10.70;99.90;;;;;;5137794;27;20071;-73
2023/12/23 11:30:05;;;;;;;4.43;3.05;;;10.50;99.90;;;;;;5136153;27;20039;-74
2023/12/23 11:32:37;;;;;;;3.07;2.20;;;10.50;99.90;;;;;;5133057;27;20477;-75
2023/12/23 11:35:11;;;;;;;3.42;2.55;;;10.50;99.90;;;;;;5134164;27;20256;-74
2023/12/23 11:37:56;;;;;;;3.83;2.45;;;10.60;99.90;;;;;;5122720;27;20039;-74
2023/12/23 11:40:22;;;;;;;2.20;2.00;;;10.70;99.90;;;;;;5130273;27;20024;-75
2023/12/23 11:42:49;;;;;;;3.03;2.13;;;10.80;99.90;;;;;;5114921;27;20041;-76
2023/12/23 11:45:15;;;;;;;2.00;1.80;;;10.90;99.90;;;;;;5125751;27;20134;-75
2023/12/23 11:47:41;;;;;;;2.83;1.90;;;11.00;99.90;;;;;;5130338;27;20023;-74
2023/12/23 11:50:08;;;;;;;3.78;2.90;;;11.10;99.90;;;;;;5114276;27;20031;-75
2023/12/23 11:52:36;;;;;;;2.65;2.45;;;11.10;99.90;;;;;;5113431;27;20381;-74
2023/12/23 11:55:05;;;;;;;2.85;2.20;;;11.10;99.90;;;;;;5128026;27;20054;-75
2023/12/23 11:57:32;;;;;;;2.88;2.00;;;11.00;99.90;;;;;;5127154;27;20019;-75
2023/12/23 12:00:02;;;;;;;2.35;2.15;;;10.90;99.90;;;;;;5128434;27;20049;-75
2023/12/23 12:02:28;;;;;;;3.28;2.30;;;10.90;99.90;;;;;;5111577;27;20046;-77
2023/12/23 12:04:53;;;;;;;2.67;2.33;;;10.70;99.90;;;;;;5129183;27;20039;-76
2023/12/23 12:07:20;;;;;;;3.58;2.92;;;10.70;99.90;;;;;;5129196;27;20019;-76
2023/12/23 12:09:46;;;;;;;4.97;3.60;;;10.70;99.90;;;;;;5126661;27;20121;-75
2023/12/23 12:12:12;;;;;;;5.03;3.88;;;10.70;99.90;;;;;;5127734;27;20023;-75
2023/12/23 12:14:38;;;;;;;3.63;3.13;;;10.90;99.90;;;;;;5131712;27;20023;-76
2023/12/23 12:17:05;;;;;;;4.72;2.65;;;11.10;99.90;;;;;;5131330;27;20029;-76
2023/12/23 12:19:31;;;;;;;4.13;3.33;;;11.30;99.90;;;;;;5111842;27;20111;-75
2023/12/23 12:21:57;;;;;;;8.23;3.33;;;11.40;99.90;;;;;;5131317;27;20676;-75
2023/12/23 12:24:23;;;;;;;3.28;2.45;;;11.50;99.90;;;;;;5131458;27;20031;-74
2023/12/23 12:26:52;;;;;;;2.83;2.10;;;11.60;99.90;;;;;;5128358;27;20038;-74
2023/12/23 12:29:20;;;;;;;3.60;2.28;;;11.60;99.90;;;;;;5111094;27;20062;-74
2023/12/23 12:31:46;;;;;;;3.63;2.20;;;11.60;99.90;;;;;;5131520;27;20023;-75
2023/12/23 12:34:12;;;;;;;4.88;3.10;;;11.50;99.90;;;;;;5130623;27;20056;-76
2023/12/23 12:36:38;;;;;;;4.28;2.58;;;11.50;99.90;;;;;;5130837;27;20027;-76
2023/12/23 12:39:04;;;;;;;3.60;2.90;;;11.50;99.90;;;;;;5128395;27;20019;-75
2023/12/23 12:41:29;;;;;;;3.40;2.00;;;11.50;99.90;;;;;;5107368;27;20030;-75
2023/12/23 12:43:55;;;;;;;5.50;2.17;;;11.50;99.90;;;;;;5126465;27;20054;-75
2023/12/23 12:46:21;;;;;;;2.45;1.88;;;11.60;99.90;;;;;;5109833;27;20023;-74